sensor_id;sensor_type;location;lat;lon;timestamp;P1;durP1;ratioP1;P2;durP2;ratioP2
12844;SDS011;68700;48.534;9.196;2023-05-23T00:03:21;18.23;;;16.33;;
12844;SDS011;68700;48.534;9.196;2023-05-23T00:06:44;17.43;;;15.63;;
12844;SDS011;68700;48.534;9.196;2023-05-23T00:10:09;17.13;;;15.10;;
12844;SDS011;68700;48.534;9.196;2023-05-23T00:13:31;19.83;;;16.17;;
12844;SDS011;68700;48.534;9.196;2023-05-23T00:16:53;18.60;;;15.73;;
12844;SDS011;68700;48.534;9.196;2023-05-23T00:20:15;18.83;;;16.90;;
12844;SDS011;68700;48.534;9.196;2023-05-23T00:23:38;18.03;;;16.07;;
12844;SDS011;68700;48.534;9.196;2023-05-23T00:27:01;17.90;;;16.00;;
12844;SDS011;68700;48.534;9.196;2023-05-23T00:30:23;18.67;;;16.67;;
12844;SDS011;68700;48.534;9.196;2023-05-23T00:33:45;18.80;;;16.67;;
12844;SDS011;68700;48.534;9.196;2023-05-23T00:37:06;19.00;;;17.00;;
12844;SDS011;68700;48.534;9.196;2023-05-23T00:40:30;18.80;;;16.80;;
12844;SDS011;68700;48.534;9.196;2023-05-23T00:43:51;19.93;;;17.77;;
12844;SDS011;68700;48.534;9.196;2023-05-23T00:47:13;19.13;;;17.07;;
12844;SDS011;68700;48.534;9.196;2023-05-23T00:50:35;19.47;;;16.97;;
12844;SDS011;68700;48.534;9.196;2023-05-23T00:53:57;20.70;;;17.77;;
12844;SDS011;68700;48.534;9.196;2023-05-23T00:57:22;18.40;;;16.40;;
12844;SDS011;68700;48.534;9.196;2023-05-23T01:00:44;18.80;;;16.87;;
12844;SDS011;68700;48.534;9.196;2023-05-23T01:04:06;17.63;;;15.90;;
12844;SDS011;68700;48.534;9.196;2023-05-23T01:07:28;18.13;;;16.30;;
12844;SDS011;68700;48.534;9.196;2023-05-23T01:10:50;18.93;;;16.80;;
12844;SDS011;68700;48.534;9.196;2023-05-23T01:14:15;19.33;;;17.33;;
12844;SDS011;68700;48.534;9.196;2023-05-23T01:17:42;19.07;;;17.17;;
12844;SDS011;68700;48.534;9.196;2023-05-23T01:21:10;18.60;;;15.67;;
12844;SDS011;68700;48.534;9.196;2023-05-23T01:24:38;18.97;;;16.97;;
12844;SDS011;68700;48.534;9.196;2023-05-23T01:28:09;19.43;;;17.33;;
12844;SDS011;68700;48.534;9.196;2023-05-23T01:31:35;17.67;;;15.00;;
12844;SDS011;68700;48.534;9.196;2023-05-23T01:35:00;19.53;;;16.47;;
12844;SDS011;68700;48.534;9.196;2023-05-23T01:38:23;20.00;;;17.90;;
12844;SDS011;68700;48.534;9.196;2023-05-23T01:41:45;19.27;;;17.27;;
12844;SDS011;68700;48.534;9.196;2023-05-23T01:45:09;22.87;;;19.20;;
12844;SDS011;68700;48.534;9.196;2023-05-23T01:48:32;22.90;;;20.07;;
12844;SDS011;68700;48.534;9.196;2023-05-23T01:51:54;22.83;;;19.50;;
12844;SDS011;68700;48.534;9.196;2023-05-23T01:55:17;25.80;;;20.43;;
12844;SDS011;68700;48.534;9.196;2023-05-23T01:58:43;21.63;;;18.30;;
12844;SDS011;68700;48.534;9.196;2023-05-23T02:02:06;24.03;;;18.17;;
12844;SDS011;68700;48.534;9.196;2023-05-23T02:05:29;26.93;;;21.20;;
12844;SDS011;68700;48.534;9.196;2023-05-23T02:08:51;26.47;;;19.83;;
12844;SDS011;68700;48.534;9.196;2023-05-23T02:12:12;25.93;;;21.00;;
12844;SDS011;68700;48.534;9.196;2023-05-23T02:15:34;26.30;;;21.03;;
12844;SDS011;68700;48.534;9.196;2023-05-23T02:18:58;26.07;;;20.70;;
12844;SDS011;68700;48.534;9.196;2023-05-23T02:22:21;24.53;;;20.27;;
12844;SDS011;68700;48.534;9.196;2023-05-23T02:25:45;23.70;;;19.17;;
12844;SDS011;68700;48.534;9.196;2023-05-23T02:29:07;21.77;;;18.40;;
12844;SDS011;68700;48.534;9.196;2023-05-23T02:32:29;20.83;;;18.00;;
12844;SDS011;68700;48.534;9.196;2023-05-23T02:35:53;19.17;;;16.90;;
12844;SDS011;68700;48.534;9.196;2023-05-23T02:39:15;21.87;;;18.40;;
12844;SDS011;68700;48.534;9.196;2023-05-23T02:42:37;31.37;;;22.60;;
12844;SDS011;68700;48.534;9.196;2023-05-23T02:45:59;27.10;;;21.17;;
12844;SDS011;68700;48.534;9.196;2023-05-23T02:49:21;32.00;;;23.13;;
12844;SDS011;68700;48.534;9.196;2023-05-23T02:52:44;32.47;;;24.40;;
12844;SDS011;68700;48.534;9.196;2023-05-23T02:56:06;33.80;;;25.03;;
12844;SDS011;68700;48.534;9.196;2023-05-23T02:59:28;33.83;;;24.57;;
12844;SDS011;68700;48.534;9.196;2023-05-23T03:02:50;35.40;;;26.33;;
12844;SDS011;68700;48.534;9.196;2023-05-23T03:06:12;42.40;;;27.00;;
12844;SDS011;68700;48.534;9.196;2023-05-23T03:09:37;33.03;;;25.37;;
12844;SDS011;68700;48.534;9.196;2023-05-23T03:12:59;40.90;;;29.27;;
12844;SDS011;68700;48.534;9.196;2023-05-23T03:16:21;40.50;;;30.30;;
12844;SDS011;68700;48.534;9.196;2023-05-23T03:19:43;48.20;;;33.20;;
12844;SDS011;68700;48.534;9.196;2023-05-23T03:23:05;40.43;;;28.43;;
12844;SDS011;68700;48.534;9.196;2023-05-23T03:26:28;45.30;;;31.03;;
12844;SDS011;68700;48.534;9.196;2023-05-23T03:29:50;40.07;;;28.33;;
12844;SDS011;68700;48.534;9.196;2023-05-23T03:33:12;41.27;;;29.23;;
12844;SDS011;68700;48.534;9.196;2023-05-23T03:36:35;35.90;;;26.30;;
12844;SDS011;68700;48.534;9.196;2023-05-23T03:39:58;39.27;;;27.23;;
12844;SDS011;68700;48.534;9.196;2023-05-23T03:43:21;36.03;;;25.83;;
12844;SDS011;68700;48.534;9.196;2023-05-23T03:46:43;38.17;;;27.00;;
12844;SDS011;68700;48.534;9.196;2023-05-23T03:50:05;32.17;;;22.90;;
12844;SDS011;68700;48.534;9.196;2023-05-23T03:53:27;26.60;;;21.33;;
12844;SDS011;68700;48.534;9.196;2023-05-23T03:56:49;29.20;;;23.67;;
12844;SDS011;68700;48.534;9.196;2023-05-23T04:00:13;24.93;;;21.00;;
12844;SDS011;68700;48.534;9.196;2023-05-23T04:03:35;24.37;;;20.70;;
12844;SDS011;68700;48.534;9.196;2023-05-23T04:06:57;26.77;;;20.27;;
12844;SDS011;68700;48.534;9.196;2023-05-23T04:10:20;21.33;;;18.37;;
12844;SDS011;68700;48.534;9.196;2023-05-23T04:13:42;26.03;;;21.57;;
12844;SDS011;68700;48.534;9.196;2023-05-23T04:17:07;27.70;;;21.47;;
12844;SDS011;68700;48.534;9.196;2023-05-23T04:20:29;27.80;;;21.50;;
12844;SDS011;68700;48.534;9.196;2023-05-23T04:23:51;22.30;;;19.13;;
12844;SDS011;68700;48.534;9.196;2023-05-23T04:27:13;27.70;;;21.53;;
12844;SDS011;68700;48.534;9.196;2023-05-23T04:30:35;32.00;;;22.10;;
12844;SDS011;68700;48.534;9.196;2023-05-23T04:33:58;29.67;;;22.63;;
12844;SDS011;68700;48.534;9.196;2023-05-23T04:37:21;26.53;;;22.83;;
12844;SDS011;68700;48.534;9.196;2023-05-23T04:40:45;32.53;;;24.37;;
12844;SDS011;68700;48.534;9.196;2023-05-23T04:44:07;35.37;;;27.07;;
12844;SDS011;68700;48.534;9.196;2023-05-23T04:47:29;36.47;;;26.20;;
12844;SDS011;68700;48.534;9.196;2023-05-23T04:50:55;34.47;;;25.17;;
12844;SDS011;68700;48.534;9.196;2023-05-23T04:54:21;31.50;;;24.70;;
12844;SDS011;68700;48.534;9.196;2023-05-23T04:57:42;31.93;;;24.67;;
12844;SDS011;68700;48.534;9.196;2023-05-23T05:01:04;30.43;;;25.17;;
12844;SDS011;68700;48.534;9.196;2023-05-23T05:04:28;36.95;;;31.38;;
12844;SDS011;68700;48.534;9.196;2023-05-23T05:07:51;34.67;;;27.37;;
12844;SDS011;68700;48.534;9.196;2023-05-23T05:11:13;30.80;;;24.50;;
12844;SDS011;68700;48.534;9.196;2023-05-23T05:14:35;40.80;;;28.47;;
12844;SDS011;68700;48.534;9.196;2023-05-23T05:17:57;38.23;;;27.70;;
12844;SDS011;68700;48.534;9.196;2023-05-23T05:21:19;40.27;;;30.87;;
12844;SDS011;68700;48.534;9.196;2023-05-23T05:24:42;48.10;;;33.03;;
12844;SDS011;68700;48.534;9.196;2023-05-23T05:28:04;44.10;;;32.43;;
12844;SDS011;68700;48.534;9.196;2023-05-23T05:31:26;48.67;;;35.50;;
12844;SDS011;68700;48.534;9.196;2023-05-23T05:34:48;46.77;;;33.40;;
12844;SDS011;68700;48.534;9.196;2023-05-23T05:38:10;45.53;;;33.47;;
12844;SDS011;68700;48.534;9.196;2023-05-23T05:41:34;51.50;;;35.37;;
12844;SDS011;68700;48.534;9.196;2023-05-23T05:44:56;47.17;;;35.23;;
12844;SDS011;68700;48.534;9.196;2023-05-23T05:48:17;47.77;;;35.40;;
12844;SDS011;68700;48.534;9.196;2023-05-23T05:51:40;46.43;;;35.73;;
12844;SDS011;68700;48.534;9.196;2023-05-23T05:55:02;52.07;;;39.27;;
12844;SDS011;68700;48.534;9.196;2023-05-23T05:58:25;54.07;;;41.27;;
12844;SDS011;68700;48.534;9.196;2023-05-23T06:01:47;54.47;;;40.93;;
12844;SDS011;68700;48.534;9.196;2023-05-23T06:05:10;57.70;;;42.00;;
12844;SDS011;68700;48.534;9.196;2023-05-23T06:08:32;61.27;;;43.03;;
12844;SDS011;68700;48.534;9.196;2023-05-23T06:11:54;54.40;;;41.73;;
12844;SDS011;68700;48.534;9.196;2023-05-23T06:15:17;58.77;;;42.57;;
12844;SDS011;68700;48.534;9.196;2023-05-23T06:18:39;53.43;;;44.60;;
12844;SDS011;68700;48.534;9.196;2023-05-23T06:22:01;58.33;;;44.23;;
12844;SDS011;68700;48.534;9.196;2023-05-23T06:25:23;58.60;;;44.77;;
12844;SDS011;68700;48.534;9.196;2023-05-23T06:28:44;55.83;;;45.30;;
12844;SDS011;68700;48.534;9.196;2023-05-23T06:32:08;60.33;;;45.43;;
12844;SDS011;68700;48.534;9.196;2023-05-23T06:35:29;56.27;;;45.83;;
12844;SDS011;68700;48.534;9.196;2023-05-23T06:38:51;56.30;;;46.37;;
12844;SDS011;68700;48.534;9.196;2023-05-23T06:42:13;55.27;;;44.87;;
12844;SDS011;68700;48.534;9.196;2023-05-23T06:45:35;51.90;;;44.03;;
12844;SDS011;68700;48.534;9.196;2023-05-23T06:48:59;52.93;;;44.47;;
12844;SDS011;68700;48.534;9.196;2023-05-23T06:52:20;59.47;;;45.70;;
12844;SDS011;68700;48.534;9.196;2023-05-23T06:55:42;53.87;;;45.87;;
12844;SDS011;68700;48.534;9.196;2023-05-23T06:59:04;51.97;;;45.33;;
12844;SDS011;68700;48.534;9.196;2023-05-23T07:02:26;51.10;;;44.03;;
12844;SDS011;68700;48.534;9.196;2023-05-23T07:05:49;48.27;;;42.87;;
12844;SDS011;68700;48.534;9.196;2023-05-23T07:09:11;46.30;;;41.37;;
12844;SDS011;68700;48.534;9.196;2023-05-23T07:12:35;47.67;;;42.57;;
12844;SDS011;68700;48.534;9.196;2023-05-23T07:15:56;48.07;;;42.80;;
12844;SDS011;68700;48.534;9.196;2023-05-23T07:19:18;49.13;;;43.87;;
12844;SDS011;68700;48.534;9.196;2023-05-23T07:22:41;48.40;;;42.70;;
12844;SDS011;68700;48.534;9.196;2023-05-23T07:26:04;47.67;;;42.60;;
12844;SDS011;68700;48.534;9.196;2023-05-23T07:29:29;48.37;;;43.07;;
12844;SDS011;68700;48.534;9.196;2023-05-23T07:32:51;50.60;;;43.57;;
12844;SDS011;68700;48.534;9.196;2023-05-23T07:36:14;50.87;;;44.57;;
12844;SDS011;68700;48.534;9.196;2023-05-23T07:39:38;53.30;;;44.60;;
12844;SDS011;68700;48.534;9.196;2023-05-23T07:43:01;50.00;;;43.07;;
12844;SDS011;68700;48.534;9.196;2023-05-23T07:46:23;49.40;;;42.50;;
12844;SDS011;68700;48.534;9.196;2023-05-23T07:49:45;47.33;;;41.33;;
12844;SDS011;68700;48.534;9.196;2023-05-23T07:53:07;47.27;;;42.20;;
12844;SDS011;68700;48.534;9.196;2023-05-23T07:56:30;46.87;;;40.77;;
12844;SDS011;68700;48.534;9.196;2023-05-23T07:59:52;47.97;;;42.87;;
12844;SDS011;68700;48.534;9.196;2023-05-23T08:03:14;45.07;;;39.70;;
12844;SDS011;68700;48.534;9.196;2023-05-23T08:06:39;43.83;;;39.10;;
12844;SDS011;68700;48.534;9.196;2023-05-23T08:10:00;44.17;;;39.37;;
12844;SDS011;68700;48.534;9.196;2023-05-23T08:13:24;43.20;;;38.10;;
12844;SDS011;68700;48.534;9.196;2023-05-23T08:16:46;44.23;;;38.87;;
12844;SDS011;68700;48.534;9.196;2023-05-23T08:20:10;44.53;;;38.50;;
12844;SDS011;68700;48.534;9.196;2023-05-23T08:23:32;47.53;;;39.53;;
12844;SDS011;68700;48.534;9.196;2023-05-23T08:26:54;44.60;;;39.73;;
12844;SDS011;68700;48.534;9.196;2023-05-23T08:30:17;45.27;;;40.27;;
12844;SDS011;68700;48.534;9.196;2023-05-23T08:33:42;42.70;;;38.17;;
12844;SDS011;68700;48.534;9.196;2023-05-23T08:37:04;42.33;;;37.90;;
12844;SDS011;68700;48.534;9.196;2023-05-23T08:40:26;40.80;;;36.47;;
12844;SDS011;68700;48.534;9.196;2023-05-23T08:43:49;42.30;;;37.73;;
12844;SDS011;68700;48.534;9.196;2023-05-23T08:47:13;39.37;;;34.87;;
12844;SDS011;68700;48.534;9.196;2023-05-23T08:50:36;38.90;;;34.83;;
12844;SDS011;68700;48.534;9.196;2023-05-23T08:53:59;39.70;;;35.47;;
12844;SDS011;68700;48.534;9.196;2023-05-23T08:57:22;41.53;;;35.97;;
12844;SDS011;68700;48.534;9.196;2023-05-23T09:00:45;39.53;;;35.30;;
12844;SDS011;68700;48.534;9.196;2023-05-23T09:04:09;39.57;;;34.57;;
12844;SDS011;68700;48.534;9.196;2023-05-23T09:07:32;36.87;;;32.90;;
12844;SDS011;68700;48.534;9.196;2023-05-23T09:10:54;37.87;;;33.80;;
12844;SDS011;68700;48.534;9.196;2023-05-23T09:14:16;37.17;;;33.47;;
12844;SDS011;68700;48.534;9.196;2023-05-23T09:17:38;35.60;;;31.83;;
12844;SDS011;68700;48.534;9.196;2023-05-23T09:21:02;34.63;;;31.00;;
12844;SDS011;68700;48.534;9.196;2023-05-23T09:24:32;34.57;;;30.83;;
12844;SDS011;68700;48.534;9.196;2023-05-23T09:27:54;35.10;;;31.50;;
12844;SDS011;68700;48.534;9.196;2023-05-23T09:31:19;33.93;;;30.53;;
12844;SDS011;68700;48.534;9.196;2023-05-23T09:34:53;32.63;;;29.37;;
12844;SDS011;68700;48.534;9.196;2023-05-23T09:38:19;33.20;;;29.70;;
12844;SDS011;68700;48.534;9.196;2023-05-23T09:41:41;36.60;;;29.40;;
12844;SDS011;68700;48.534;9.196;2023-05-23T09:45:03;31.10;;;27.80;;
12844;SDS011;68700;48.534;9.196;2023-05-23T09:48:29;30.83;;;27.73;;
12844;SDS011;68700;48.534;9.196;2023-05-23T09:51:57;30.20;;;26.97;;
12844;SDS011;68700;48.534;9.196;2023-05-23T09:55:20;29.60;;;26.63;;
12844;SDS011;68700;48.534;9.196;2023-05-23T09:58:43;30.07;;;26.97;;
12844;SDS011;68700;48.534;9.196;2023-05-23T10:02:09;29.07;;;25.83;;
12844;SDS011;68700;48.534;9.196;2023-05-23T10:05:33;30.10;;;26.90;;
12844;SDS011;68700;48.534;9.196;2023-05-23T10:08:58;30.63;;;26.53;;
12844;SDS011;68700;48.534;9.196;2023-05-23T10:16:08;30.80;;;25.93;;
12844;SDS011;68700;48.534;9.196;2023-05-23T10:19:37;30.10;;;27.00;;
12844;SDS011;68700;48.534;9.196;2023-05-23T10:23:04;29.90;;;26.80;;
12844;SDS011;68700;48.534;9.196;2023-05-23T10:26:26;27.93;;;25.07;;
12844;SDS011;68700;48.534;9.196;2023-05-23T10:29:49;30.50;;;27.27;;
12844;SDS011;68700;48.534;9.196;2023-05-23T10:33:12;27.80;;;24.93;;
12844;SDS011;68700;48.534;9.196;2023-05-23T10:36:36;27.83;;;24.90;;
12844;SDS011;68700;48.534;9.196;2023-05-23T10:40:06;27.80;;;24.80;;
12844;SDS011;68700;48.534;9.196;2023-05-23T10:43:38;26.63;;;23.83;;
12844;SDS011;68700;48.534;9.196;2023-05-23T10:47:06;26.60;;;23.90;;
12844;SDS011;68700;48.534;9.196;2023-05-23T10:50:31;24.13;;;21.67;;
12844;SDS011;68700;48.534;9.196;2023-05-23T10:53:54;23.80;;;21.30;;
12844;SDS011;68700;48.534;9.196;2023-05-23T10:57:16;22.37;;;20.07;;
12844;SDS011;68700;48.534;9.196;2023-05-23T11:00:41;22.50;;;20.07;;
12844;SDS011;68700;48.534;9.196;2023-05-23T11:04:12;21.23;;;19.00;;
12844;SDS011;68700;48.534;9.196;2023-05-23T11:07:34;20.90;;;18.90;;
12844;SDS011;68700;48.534;9.196;2023-05-23T11:10:58;18.70;;;16.80;;
12844;SDS011;68700;48.534;9.196;2023-05-23T11:14:30;16.80;;;15.20;;
12844;SDS011;68700;48.534;9.196;2023-05-23T11:17:53;15.40;;;13.90;;
12844;SDS011;68700;48.534;9.196;2023-05-23T11:21:17;16.07;;;14.47;;
12844;SDS011;68700;48.534;9.196;2023-05-23T11:24:46;16.20;;;14.60;;
12844;SDS011;68700;48.534;9.196;2023-05-23T11:28:10;15.70;;;14.10;;
12844;SDS011;68700;48.534;9.196;2023-05-23T11:31:35;14.67;;;13.37;;
12844;SDS011;68700;48.534;9.196;2023-05-23T11:34:58;14.90;;;13.50;;
12844;SDS011;68700;48.534;9.196;2023-05-23T11:38:22;14.67;;;13.30;;
12844;SDS011;68700;48.534;9.196;2023-05-23T11:41:49;14.10;;;12.77;;
12844;SDS011;68700;48.534;9.196;2023-05-23T11:45:18;13.90;;;12.70;;
12844;SDS011;68700;48.534;9.196;2023-05-23T11:48:43;14.27;;;12.97;;
12844;SDS011;68700;48.534;9.196;2023-05-23T11:52:05;13.40;;;12.03;;
12844;SDS011;68700;48.534;9.196;2023-05-23T11:55:29;12.43;;;11.23;;
12844;SDS011;68700;48.534;9.196;2023-05-23T11:58:51;17.27;;;12.47;;
12844;SDS011;68700;48.534;9.196;2023-05-23T12:02:16;11.07;;;10.07;;
12844;SDS011;68700;48.534;9.196;2023-05-23T12:05:37;12.17;;;11.07;;
12844;SDS011;68700;48.534;9.196;2023-05-23T12:09:00;12.37;;;10.33;;
12844;SDS011;68700;48.534;9.196;2023-05-23T12:12:23;11.40;;;10.30;;
12844;SDS011;68700;48.534;9.196;2023-05-23T12:15:45;11.67;;;10.53;;
12844;SDS011;68700;48.534;9.196;2023-05-23T12:19:08;11.70;;;10.70;;
12844;SDS011;68700;48.534;9.196;2023-05-23T12:22:29;11.27;;;10.17;;
12844;SDS011;68700;48.534;9.196;2023-05-23T12:25:52;11.97;;;10.77;;
12844;SDS011;68700;48.534;9.196;2023-05-23T12:29:18;12.27;;;11.17;;
12844;SDS011;68700;48.534;9.196;2023-05-23T12:32:42;12.53;;;11.33;;
12844;SDS011;68700;48.534;9.196;2023-05-23T12:36:05;11.93;;;10.83;;
12844;SDS011;68700;48.534;9.196;2023-05-23T12:39:27;11.50;;;10.50;;
12844;SDS011;68700;48.534;9.196;2023-05-23T12:42:49;12.00;;;10.87;;
12844;SDS011;68700;48.534;9.196;2023-05-23T12:50:16;12.00;;;10.87;;
12844;SDS011;68700;48.534;9.196;2023-05-23T12:53:38;12.50;;;11.37;;
12844;SDS011;68700;48.534;9.196;2023-05-23T12:57:00;11.80;;;10.80;;
12844;SDS011;68700;48.534;9.196;2023-05-23T13:00:21;12.23;;;11.23;;
12844;SDS011;68700;48.534;9.196;2023-05-23T13:03:43;12.20;;;11.10;;
12844;SDS011;68700;48.534;9.196;2023-05-23T13:07:06;11.23;;;10.20;;
12844;SDS011;68700;48.534;9.196;2023-05-23T13:10:28;11.03;;;10.13;;
12844;SDS011;68700;48.534;9.196;2023-05-23T13:13:50;10.83;;;9.93;;
12844;SDS011;68700;48.534;9.196;2023-05-23T13:17:12;10.00;;;9.10;;
12844;SDS011;68700;48.534;9.196;2023-05-23T13:20:34;9.07;;;8.20;;
12844;SDS011;68700;48.534;9.196;2023-05-23T13:23:58;8.30;;;7.60;;
12844;SDS011;68700;48.534;9.196;2023-05-23T13:27:29;7.90;;;7.30;;
12844;SDS011;68700;48.534;9.196;2023-05-23T13:30:50;7.40;;;6.67;;
12844;SDS011;68700;48.534;9.196;2023-05-23T13:34:12;7.37;;;6.73;;
12844;SDS011;68700;48.534;9.196;2023-05-23T13:37:34;7.67;;;7.07;;
12844;SDS011;68700;48.534;9.196;2023-05-23T13:40:58;7.50;;;6.43;;
12844;SDS011;68700;48.534;9.196;2023-05-23T13:44:20;7.60;;;6.90;;
12844;SDS011;68700;48.534;9.196;2023-05-23T13:47:41;7.63;;;7.03;;
12844;SDS011;68700;48.534;9.196;2023-05-23T13:51:03;6.83;;;6.23;;
12844;SDS011;68700;48.534;9.196;2023-05-23T13:54:25;7.17;;;6.57;;
12844;SDS011;68700;48.534;9.196;2023-05-23T13:57:48;6.77;;;6.10;;
12844;SDS011;68700;48.534;9.196;2023-05-23T14:01:10;6.70;;;6.10;;
12844;SDS011;68700;48.534;9.196;2023-05-23T14:04:32;6.63;;;6.03;;
12844;SDS011;68700;48.534;9.196;2023-05-23T14:07:54;6.27;;;5.67;;
12844;SDS011;68700;48.534;9.196;2023-05-23T14:11:16;6.10;;;5.60;;
12844;SDS011;68700;48.534;9.196;2023-05-23T14:14:39;6.30;;;5.80;;
12844;SDS011;68700;48.534;9.196;2023-05-23T14:18:01;6.00;;;5.40;;
12844;SDS011;68700;48.534;9.196;2023-05-23T14:21:23;5.60;;;5.20;;
12844;SDS011;68700;48.534;9.196;2023-05-23T14:24:44;5.67;;;5.00;;
12844;SDS011;68700;48.534;9.196;2023-05-23T14:28:06;5.40;;;4.90;;
12844;SDS011;68700;48.534;9.196;2023-05-23T14:31:30;5.70;;;5.30;;
12844;SDS011;68700;48.534;9.196;2023-05-23T14:34:52;6.40;;;5.27;;
12844;SDS011;68700;48.534;9.196;2023-05-23T14:38:14;5.73;;;5.23;;
12844;SDS011;68700;48.534;9.196;2023-05-23T14:41:36;5.43;;;4.93;;
12844;SDS011;68700;48.534;9.196;2023-05-23T14:44:58;6.10;;;5.50;;
12844;SDS011;68700;48.534;9.196;2023-05-23T14:48:21;5.47;;;5.07;;
12844;SDS011;68700;48.534;9.196;2023-05-23T14:51:43;5.23;;;4.73;;
12844;SDS011;68700;48.534;9.196;2023-05-23T14:55:05;5.63;;;5.13;;
12844;SDS011;68700;48.534;9.196;2023-05-23T14:58:28;5.40;;;4.90;;
12844;SDS011;68700;48.534;9.196;2023-05-23T15:01:50;7.50;;;4.60;;
12844;SDS011;68700;48.534;9.196;2023-05-23T15:05:13;4.90;;;4.40;;
12844;SDS011;68700;48.534;9.196;2023-05-23T15:08:36;4.80;;;4.30;;
12844;SDS011;68700;48.534;9.196;2023-05-23T15:11:57;4.70;;;4.30;;
12844;SDS011;68700;48.534;9.196;2023-05-23T15:15:20;4.70;;;4.30;;
12844;SDS011;68700;48.534;9.196;2023-05-23T15:18:42;4.13;;;3.83;;
12844;SDS011;68700;48.534;9.196;2023-05-23T15:22:06;4.40;;;4.10;;
12844;SDS011;68700;48.534;9.196;2023-05-23T15:25:28;4.63;;;4.23;;
12844;SDS011;68700;48.534;9.196;2023-05-23T15:28:50;4.80;;;4.40;;
12844;SDS011;68700;48.534;9.196;2023-05-23T15:32:11;4.20;;;3.90;;
12844;SDS011;68700;48.534;9.196;2023-05-23T15:35:33;5.27;;;4.53;;
12844;SDS011;68700;48.534;9.196;2023-05-23T15:38:56;4.67;;;4.33;;
12844;SDS011;68700;48.534;9.196;2023-05-23T15:42:18;4.30;;;4.00;;
12844;SDS011;68700;48.534;9.196;2023-05-23T15:45:40;4.70;;;4.20;;
12844;SDS011;68700;48.534;9.196;2023-05-23T15:49:02;5.13;;;4.27;;
12844;SDS011;68700;48.534;9.196;2023-05-23T15:52:24;5.00;;;4.50;;
12844;SDS011;68700;48.534;9.196;2023-05-23T15:55:47;5.20;;;4.50;;
12844;SDS011;68700;48.534;9.196;2023-05-23T15:59:09;4.70;;;4.13;;
12844;SDS011;68700;48.534;9.196;2023-05-23T16:02:31;5.90;;;4.03;;
12844;SDS011;68700;48.534;9.196;2023-05-23T16:05:53;8.00;;;4.63;;
12844;SDS011;68700;48.534;9.196;2023-05-23T16:09:15;4.43;;;4.03;;
12844;SDS011;68700;48.534;9.196;2023-05-23T16:12:38;4.77;;;4.30;;
12844;SDS011;68700;48.534;9.196;2023-05-23T16:16:01;4.37;;;4.00;;
12844;SDS011;68700;48.534;9.196;2023-05-23T16:19:23;4.63;;;4.23;;
12844;SDS011;68700;48.534;9.196;2023-05-23T16:22:45;5.03;;;4.20;;
12844;SDS011;68700;48.534;9.196;2023-05-23T16:26:09;4.90;;;4.40;;
12844;SDS011;68700;48.534;9.196;2023-05-23T16:29:44;6.03;;;4.40;;
12844;SDS011;68700;48.534;9.196;2023-05-23T16:33:08;4.70;;;4.30;;
12844;SDS011;68700;48.534;9.196;2023-05-23T16:36:33;4.47;;;4.10;;
12844;SDS011;68700;48.534;9.196;2023-05-23T16:39:56;4.93;;;4.23;;
12844;SDS011;68700;48.534;9.196;2023-05-23T16:43:20;5.07;;;4.57;;
12844;SDS011;68700;48.534;9.196;2023-05-23T16:46:43;4.80;;;4.30;;
12844;SDS011;68700;48.534;9.196;2023-05-23T16:50:05;4.50;;;4.20;;
12844;SDS011;68700;48.534;9.196;2023-05-23T16:53:28;4.50;;;4.13;;
12844;SDS011;68700;48.534;9.196;2023-05-23T16:56:50;4.97;;;4.57;;
12844;SDS011;68700;48.534;9.196;2023-05-23T17:00:12;4.63;;;4.33;;
12844;SDS011;68700;48.534;9.196;2023-05-23T17:03:36;4.57;;;4.17;;
12844;SDS011;68700;48.534;9.196;2023-05-23T17:07:00;4.67;;;4.30;;
12844;SDS011;68700;48.534;9.196;2023-05-23T17:10:22;4.30;;;4.00;;
12844;SDS011;68700;48.534;9.196;2023-05-23T17:13:43;4.33;;;3.93;;
12844;SDS011;68700;48.534;9.196;2023-05-23T17:17:05;6.13;;;4.77;;
12844;SDS011;68700;48.534;9.196;2023-05-23T17:20:29;5.17;;;4.77;;
12844;SDS011;68700;48.534;9.196;2023-05-23T17:23:51;7.30;;;4.93;;
12844;SDS011;68700;48.534;9.196;2023-05-23T17:27:12;7.73;;;5.70;;
12844;SDS011;68700;48.534;9.196;2023-05-23T17:30:34;8.53;;;7.03;;
12844;SDS011;68700;48.534;9.196;2023-05-23T17:33:56;8.67;;;7.20;;
12844;SDS011;68700;48.534;9.196;2023-05-23T17:37:19;8.47;;;7.60;;
12844;SDS011;68700;48.534;9.196;2023-05-23T17:40:41;9.03;;;8.13;;
12844;SDS011;68700;48.534;9.196;2023-05-23T17:44:03;9.53;;;8.63;;
12844;SDS011;68700;48.534;9.196;2023-05-23T17:47:25;9.60;;;8.70;;
12844;SDS011;68700;48.534;9.196;2023-05-23T17:50:47;9.50;;;8.53;;
12844;SDS011;68700;48.534;9.196;2023-05-23T17:54:10;10.30;;;8.83;;
12844;SDS011;68700;48.534;9.196;2023-05-23T17:57:32;10.20;;;9.30;;
12844;SDS011;68700;48.534;9.196;2023-05-23T18:00:53;9.63;;;8.63;;
12844;SDS011;68700;48.534;9.196;2023-05-23T18:04:15;9.03;;;8.13;;
12844;SDS011;68700;48.534;9.196;2023-05-23T18:07:37;9.17;;;8.27;;
12844;SDS011;68700;48.534;9.196;2023-05-23T18:11:00;8.80;;;8.00;;
12844;SDS011;68700;48.534;9.196;2023-05-23T18:14:22;9.00;;;8.10;;
12844;SDS011;68700;48.534;9.196;2023-05-23T18:17:44;9.10;;;8.17;;
12844;SDS011;68700;48.534;9.196;2023-05-23T18:21:06;8.57;;;7.37;;
12844;SDS011;68700;48.534;9.196;2023-05-23T18:24:28;8.40;;;7.50;;
12844;SDS011;68700;48.534;9.196;2023-05-23T18:27:52;9.50;;;8.50;;
12844;SDS011;68700;48.534;9.196;2023-05-23T18:31:14;8.77;;;7.57;;
12844;SDS011;68700;48.534;9.196;2023-05-23T18:34:36;8.10;;;7.37;;
12844;SDS011;68700;48.534;9.196;2023-05-23T18:37:58;9.77;;;7.70;;
12844;SDS011;68700;48.534;9.196;2023-05-23T18:41:20;10.30;;;7.13;;
12844;SDS011;68700;48.534;9.196;2023-05-23T18:44:43;11.07;;;7.77;;
12844;SDS011;68700;48.534;9.196;2023-05-23T18:48:05;7.90;;;7.13;;
12844;SDS011;68700;48.534;9.196;2023-05-23T18:51:27;7.83;;;6.87;;
12844;SDS011;68700;48.534;9.196;2023-05-23T18:54:50;7.07;;;6.47;;
12844;SDS011;68700;48.534;9.196;2023-05-23T18:58:12;8.67;;;6.67;;
12844;SDS011;68700;48.534;9.196;2023-05-23T19:01:36;9.23;;;6.80;;
12844;SDS011;68700;48.534;9.196;2023-05-23T19:04:58;8.10;;;6.83;;
12844;SDS011;68700;48.534;9.196;2023-05-23T19:08:19;7.77;;;6.27;;
12844;SDS011;68700;48.534;9.196;2023-05-23T19:11:42;8.20;;;6.10;;
12844;SDS011;68700;48.534;9.196;2023-05-23T19:15:04;7.13;;;6.47;;
12844;SDS011;68700;48.534;9.196;2023-05-23T19:18:29;8.17;;;6.83;;
12844;SDS011;68700;48.534;9.196;2023-05-23T19:21:51;7.30;;;6.37;;
12844;SDS011;68700;48.534;9.196;2023-05-23T19:25:13;6.93;;;6.23;;
12844;SDS011;68700;48.534;9.196;2023-05-23T19:28:35;8.83;;;6.63;;
12844;SDS011;68700;48.534;9.196;2023-05-23T19:31:57;9.97;;;6.90;;
12844;SDS011;68700;48.534;9.196;2023-05-23T19:35:20;8.70;;;7.07;;
12844;SDS011;68700;48.534;9.196;2023-05-23T19:38:42;7.23;;;6.63;;
12844;SDS011;68700;48.534;9.196;2023-05-23T19:42:04;7.57;;;6.87;;
12844;SDS011;68700;48.534;9.196;2023-05-23T19:45:29;8.07;;;7.27;;
12844;SDS011;68700;48.534;9.196;2023-05-23T19:48:51;7.93;;;7.23;;
12844;SDS011;68700;48.534;9.196;2023-05-23T19:52:16;8.70;;;7.67;;
12844;SDS011;68700;48.534;9.196;2023-05-23T19:55:37;9.30;;;8.27;;
12844;SDS011;68700;48.534;9.196;2023-05-23T19:59:01;9.13;;;7.37;;
12844;SDS011;68700;48.534;9.196;2023-05-23T20:02:23;10.20;;;8.23;;
12844;SDS011;68700;48.534;9.196;2023-05-23T20:05:45;9.40;;;8.50;;
12844;SDS011;68700;48.534;9.196;2023-05-23T20:09:08;10.37;;;8.63;;